Time;durP1;ratioP1;P1;durP2;ratioP2;P2;SDS_P1;SDS_P2;PMS_P1;PMS_P2;Temp;Humidity;BMP_temperature;BMP_pressure;BME280_temperature;BME280_humidity;BME280_pressure;Samples;Min_cycle;Max_cycle;Signal;HPM_P1;HPM_P2
2023/07/13 00:00:36;;;;;;;11.90;5.00;;;17.00;99.90;;;;;;4987157;28;20019;-62
2023/07/13 00:03:01;;;;;;;7.40;4.72;;;17.10;99.90;;;;;;4983465;28;20519;-61
2023/07/13 00:05:27;;;;;;;10.55;4.53;;;17.00;99.90;;;;;;4987176;28;20053;-61
2023/07/13 00:07:54;;;;;;;7.30;4.25;;;17.00;99.90;;;;;;4987442;28;20257;-62
2023/07/13 00:10:20;;;;;;;10.40;4.60;;;17.00;99.90;;;;;;4987120;28;20135;-61
2023/07/13 00:12:46;;;;;;;4.63;3.83;;;17.10;99.90;;;;;;4986730;28;20019;-61
2023/07/13 00:15:22;;;;;;;8.25;4.88;;;17.00;99.90;;;;;;4989456;28;20368;-61
2023/07/13 00:17:48;;;;;;;13.45;4.60;;;17.00;99.90;;;;;;4993685;28;20026;-61
2023/07/13 00:20:14;;;;;;;6.25;4.00;;;17.00;99.90;;;;;;4993840;28;20475;-61
2023/07/13 00:22:39;;;;;;;10.23;5.00;;;16.90;99.90;;;;;;4993144;28;20031;-61
2023/07/13 00:25:05;;;;;;;10.52;4.75;;;16.90;99.90;;;;;;4993785;28;20113;-61
2023/07/13 00:27:31;;;;;;;6.20;4.22;;;17.00;99.90;;;;;;4992189;28;20026;-61
2023/07/13 00:29:58;;;;;;;8.15;4.28;;;16.90;99.90;;;;;;4993406;28;20027;-61
2023/07/13 00:32:25;;;;;;;8.75;4.53;;;16.90;99.90;;;;;;4993114;28;20422;-61
2023/07/13 00:34:51;;;;;;;10.50;4.40;;;17.00;99.90;;;;;;4992477;28;20018;-61
2023/07/13 00:37:17;;;;;;;6.68;4.13;;;16.90;99.90;;;;;;4993349;28;20019;-61
2023/07/13 00:39:42;;;;;;;8.80;4.35;;;17.00;99.90;;;;;;4993283;28;20253;-61
2023/07/13 00:42:08;;;;;;;7.55;3.97;;;17.00;99.90;;;;;;4992982;28;20039;-61
2023/07/13 00:44:34;;;;;;;5.05;3.60;;;17.00;99.90;;;;;;4993430;28;20160;-61
2023/07/13 00:46:59;;;;;;;6.35;4.15;;;17.10;99.90;;;;;;4993216;28;20050;-61
2023/07/13 00:49:27;;;;;;;6.63;3.65;;;17.00;99.90;;;;;;4993068;28;20483;-61
2023/07/13 00:52:01;;;;;;;6.97;3.47;;;17.10;99.90;;;;;;4992775;28;20549;-61
2023/07/13 00:54:31;;;;;;;4.28;3.35;;;17.10;99.90;;;;;;4993454;28;20025;-62
2023/07/13 00:57:01;;;;;;;5.28;3.90;;;17.20;99.90;;;;;;4986062;28;20037;-63
2023/07/13 00:59:26;;;;;;;7.43;4.05;;;17.20;99.90;;;;;;4993194;28;20422;-62
2023/07/13 01:01:54;;;;;;;5.05;3.55;;;17.10;99.90;;;;;;4992715;28;20055;-62
2023/07/13 01:04:20;;;;;;;4.53;3.70;;;17.20;99.90;;;;;;4993147;28;20022;-62
2023/07/13 01:06:46;;;;;;;4.25;3.40;;;17.20;99.90;;;;;;4991810;28;20501;-62
2023/07/13 01:09:12;;;;;;;7.47;3.58;;;17.20;99.90;;;;;;4992947;28;20022;-62
2023/07/13 01:11:38;;;;;;;5.10;3.88;;;17.20;99.90;;;;;;4992709;28;20022;-62
2023/07/13 01:14:04;;;;;;;5.57;3.92;;;17.20;99.90;;;;;;4993435;28;20429;-62
2023/07/13 01:16:33;;;;;;;6.15;4.35;;;17.10;99.90;;;;;;4993041;28;20033;-62
2023/07/13 01:19:00;;;;;;;6.60;4.15;;;17.10;99.90;;;;;;4993065;28;20110;-61
2023/07/13 01:21:28;;;;;;;7.65;4.10;;;17.10;99.90;;;;;;4992434;28;20026;-62
2023/07/13 01:23:53;;;;;;;6.72;3.78;;;17.10;99.90;;;;;;4991758;28;20034;-62
2023/07/13 01:26:19;;;;;;;6.20;3.83;;;17.00;99.90;;;;;;4991580;28;20026;-61
2023/07/13 01:28:44;;;;;;;5.70;4.00;;;17.00;99.90;;;;;;4989276;28;20034;-62
2023/07/13 01:31:11;;;;;;;10.20;4.93;;;16.90;99.90;;;;;;4989233;28;20050;-61
2023/07/13 01:33:40;;;;;;;5.18;4.32;;;16.90;99.90;;;;;;4988264;28;20045;-60
2023/07/13 01:36:07;;;;;;;7.75;4.10;;;16.90;99.90;;;;;;5021848;28;20021;-60
2023/07/13 01:38:34;;;;;;;7.32;3.80;;;16.90;99.90;;;;;;5025866;28;20095;-60
2023/07/13 01:41:00;;;;;;;8.38;4.60;;;16.80;99.90;;;;;;5018740;28;20040;-60
2023/07/13 01:43:25;;;;;;;10.88;4.93;;;16.80;99.90;;;;;;4989474;28;20199;-60
2023/07/13 01:45:51;;;;;;;6.32;4.05;;;16.80;99.90;;;;;;4989349;28;20087;-61
2023/07/13 01:48:16;;;;;;;13.35;4.72;;;16.80;99.90;;;;;;4989341;28;20030;-60
2023/07/13 01:50:42;;;;;;;8.40;4.22;;;16.70;99.90;;;;;;4989165;28;20424;-60
2023/07/13 01:53:07;;;;;;;8.95;4.55;;;16.70;99.90;;;;;;4989329;28;20521;-60
2023/07/13 01:55:34;;;;;;;8.00;4.30;;;16.70;99.90;;;;;;4989470;28;20129;-61
2023/07/13 01:57:59;;;;;;;6.07;4.32;;;16.60;99.90;;;;;;4989465;28;20381;-61
2023/07/13 02:00:25;;;;;;;10.32;5.25;;;16.60;99.90;;;;;;5002154;28;20422;-61
2023/07/13 02:02:51;;;;;;;9.25;4.70;;;16.70;99.90;;;;;;4991173;28;20587;-61
2023/07/13 02:05:17;;;;;;;8.30;4.00;;;16.70;99.90;;;;;;4989423;28;20038;-61
2023/07/13 02:11:04;;;;;;;6.30;3.90;;;16.80;99.90;;;;;;4988906;28;20414;-61
2023/07/13 02:13:29;;;;;;;5.72;4.00;;;16.80;99.90;;;;;;4989085;28;20030;-60
2023/07/13 02:15:55;;;;;;;6.50;4.03;;;16.80;99.90;;;;;;4989046;28;20022;-61
2023/07/13 02:18:20;;;;;;;7.60;4.25;;;16.80;99.90;;;;;;4988875;28;20434;-61
2023/07/13 02:20:46;;;;;;;9.13;4.22;;;16.80;99.90;;;;;;4987019;28;20034;-61
2023/07/13 02:23:12;;;;;;;7.88;3.95;;;16.80;99.90;;;;;;4988942;28;20046;-60
2023/07/13 02:25:37;;;;;;;6.18;3.75;;;16.70;99.90;;;;;;4988787;28;20053;-61
2023/07/13 02:28:03;;;;;;;5.93;3.85;;;16.70;99.90;;;;;;4982864;28;20144;-61
2023/07/13 02:30:29;;;;;;;7.60;4.60;;;16.70;99.90;;;;;;4984819;28;20094;-60
2023/07/13 02:32:55;;;;;;;9.80;4.55;;;16.70;99.90;;;;;;4988460;28;20045;-60
2023/07/13 02:35:21;;;;;;;11.48;4.15;;;16.60;99.90;;;;;;4989130;28;20018;-60
2023/07/13 02:37:47;;;;;;;8.65;4.20;;;16.70;99.90;;;;;;4987903;28;20026;-61
2023/07/13 02:40:12;;;;;;;7.85;4.10;;;16.60;99.90;;;;;;4987428;28;20030;-61
2023/07/13 02:42:39;;;;;;;6.93;3.83;;;16.60;99.90;;;;;;4988092;28;20095;-61
2023/07/13 02:45:05;;;;;;;9.68;4.13;;;16.60;99.90;;;;;;4988712;28;20094;-61
2023/07/13 02:47:32;;;;;;;3.97;3.33;;;16.50;99.90;;;;;;4988635;28;20030;-61
2023/07/13 02:49:57;;;;;;;6.93;3.97;;;16.50;99.90;;;;;;4980271;28;20079;-59
2023/07/13 02:52:23;;;;;;;6.78;4.28;;;16.50;99.90;;;;;;4986646;28;20495;-58
2023/07/13 02:54:48;;;;;;;5.35;4.15;;;16.50;99.90;;;;;;4985005;28;20069;-58
2023/07/13 02:57:14;;;;;;;7.00;4.32;;;16.50;99.90;;;;;;4974645;28;20050;-58
2023/07/13 02:59:39;;;;;;;8.15;4.20;;;16.50;99.90;;;;;;4988387;28;20033;-60
2023/07/13 03:02:05;;;;;;;6.97;4.50;;;16.50;99.90;;;;;;4986813;28;20394;-59
2023/07/13 03:04:31;;;;;;;7.18;4.20;;;16.50;99.90;;;;;;4980738;28;20027;-58
2023/07/13 03:06:59;;;;;;;9.00;4.35;;;16.40;99.90;;;;;;4975754;28;20488;-58
2023/07/13 03:09:25;;;;;;;7.78;4.18;;;16.50;99.90;;;;;;4975827;28;20495;-59
2023/07/13 03:11:54;;;;;;;6.93;3.92;;;16.40;99.90;;;;;;4987669;28;20102;-59
2023/07/13 03:14:21;;;;;;;6.40;4.32;;;16.40;99.90;;;;;;4973842;28;20633;-59
2023/07/13 03:16:47;;;;;;;8.93;3.80;;;16.40;99.90;;;;;;4979052;28;20030;-59
2023/07/13 03:19:13;;;;;;;6.30;3.92;;;16.40;99.90;;;;;;4973973;28;20027;-58
2023/07/13 03:21:38;;;;;;;5.55;3.80;;;16.50;99.90;;;;;;4971649;28;20038;-58
2023/07/13 03:24:04;;;;;;;6.30;3.67;;;16.50;99.90;;;;;;4988448;28;20033;-60
2023/07/13 03:26:29;;;;;;;7.70;4.68;;;16.50;99.90;;;;;;4980727;28;20026;-59
2023/07/13 03:28:55;;;;;;;7.65;4.32;;;16.50;99.90;;;;;;4976292;28;20471;-59
2023/07/13 03:31:25;;;;;;;7.70;3.60;;;16.50;99.90;;;;;;4968366;28;20027;-59
2023/07/13 03:33:51;;;;;;;6.53;4.47;;;16.50;99.90;;;;;;4971094;28;20102;-59
2023/07/13 03:36:25;;;;;;;8.35;4.55;;;16.50;99.90;;;;;;4980076;28;20091;-60
2023/07/13 03:38:53;;;;;;;10.55;5.15;;;16.50;99.90;;;;;;4988083;28;20037;-60
2023/07/13 03:41:19;;;;;;;8.77;4.05;;;16.50;99.90;;;;;;4987116;28;20491;-61
2023/07/13 03:43:45;;;;;;;6.68;3.78;;;16.50;99.90;;;;;;4987781;28;20038;-60
2023/07/13 03:46:11;;;;;;;7.85;4.47;;;16.50;99.90;;;;;;4987650;28;20014;-60
2023/07/13 03:48:36;;;;;;;6.70;4.28;;;16.60;99.90;;;;;;4987475;28;20050;-59
2023/07/13 03:51:02;;;;;;;7.85;4.15;;;16.60;99.90;;;;;;4986132;28;20113;-60
2023/07/13 03:53:28;;;;;;;7.95;4.65;;;16.50;99.90;;;;;;4987784;28;20109;-59
2023/07/13 03:55:53;;;;;;;6.28;3.83;;;16.60;99.90;;;;;;4987436;28;20023;-59
2023/07/13 03:58:34;;;;;;;8.30;4.97;;;16.60;99.90;;;;;;4987392;28;20034;-60
2023/07/13 04:01:01;;;;;;;6.55;4.72;;;16.60;99.90;;;;;;4978789;28;20026;-60
2023/07/13 04:03:27;;;;;;;8.65;4.70;;;16.50;99.90;;;;;;4979613;28;20399;-59
2023/07/13 04:05:54;;;;;;;8.68;4.55;;;16.60;99.90;;;;;;4977373;28;20045;-59
2023/07/13 04:08:19;;;;;;;7.40;4.70;;;16.50;99.90;;;;;;4976205;28;20027;-58
2023/07/13 04:10:45;;;;;;;8.18;4.40;;;16.50;99.90;;;;;;4967681;28;20035;-58
2023/07/13 04:13:10;;;;;;;6.65;4.03;;;16.60;99.90;;;;;;4976113;28;20030;-59
2023/07/13 04:15:36;;;;;;;8.48;4.38;;;16.50;99.90;;;;;;4976335;28;20026;-58
2023/07/13 04:18:03;;;;;;;7.18;4.53;;;16.50;99.90;;;;;;4987576;28;20026;-58
2023/07/13 04:20:29;;;;;;;11.65;4.47;;;16.50;99.90;;;;;;4982348;28;20077;-59
2023/07/13 04:22:55;;;;;;;6.20;4.55;;;16.50;99.90;;;;;;4986102;28;20032;-59
2023/07/13 04:25:21;;;;;;;9.88;4.28;;;16.50;99.90;;;;;;4976710;28;20030;-58
2023/07/13 04:27:47;;;;;;;8.68;4.43;;;16.50;99.90;;;;;;4968144;28;20031;-58
2023/07/13 04:30:12;;;;;;;10.13;4.63;;;16.50;99.90;;;;;;4975648;28;20224;-58
2023/07/13 04:32:38;;;;;;;8.38;3.67;;;16.60;99.90;;;;;;4967630;28;20055;-59
2023/07/13 04:35:04;;;;;;;9.50;4.57;;;16.60;99.90;;;;;;4968418;28;20349;-58
2023/07/13 04:37:30;;;;;;;7.93;4.35;;;16.60;99.90;;;;;;4974657;28;20475;-60
2023/07/13 04:39:55;;;;;;;6.47;4.25;;;16.60;99.90;;;;;;4986765;28;20223;-60
2023/07/13 04:42:21;;;;;;;10.05;3.55;;;16.60;99.90;;;;;;4980414;28;20083;-60
2023/07/13 04:44:50;;;;;;;7.97;4.45;;;16.60;99.90;;;;;;4986291;28;20083;-60
2023/07/13 04:47:16;;;;;;;6.93;4.18;;;16.70;99.90;;;;;;5030990;28;20399;-60
2023/07/13 04:49:42;;;;;;;7.45;3.80;;;16.70;99.90;;;;;;4984577;28;20026;-60
2023/07/13 04:52:07;;;;;;;4.43;3.60;;;16.70;99.90;;;;;;5032124;28;20020;-60
2023/07/13 04:54:37;;;;;;;5.80;3.90;;;16.70;99.90;;;;;;5025745;28;20031;-61
2023/07/13 04:57:05;;;;;;;7.43;3.88;;;16.80;99.90;;;;;;5033026;28;20107;-61
2023/07/13 04:59:32;;;;;;;5.97;4.07;;;16.80;99.90;;;;;;5009555;28;20497;-59
2023/07/13 05:01:57;;;;;;;7.00;4.18;;;16.80;99.90;;;;;;4977212;28;20056;-59
2023/07/13 05:04:23;;;;;;;7.95;4.00;;;16.70;99.90;;;;;;4976819;28;20109;-58
2023/07/13 05:06:48;;;;;;;9.98;4.38;;;16.70;99.90;;;;;;4971243;28;20034;-58
2023/07/13 05:09:14;;;;;;;9.10;4.07;;;16.80;99.90;;;;;;4988775;28;20027;-58
2023/07/13 05:11:39;;;;;;;9.98;3.97;;;16.80;99.90;;;;;;4979089;28;20231;-59
2023/07/13 05:14:05;;;;;;;7.43;4.20;;;16.80;99.90;;;;;;4989215;28;20015;-58
2023/07/13 05:16:32;;;;;;;8.10;3.65;;;16.90;99.90;;;;;;4975205;28;20015;-58
2023/07/13 05:18:57;;;;;;;8.98;3.63;;;16.90;99.90;;;;;;4973443;28;20053;-58
2023/07/13 05:21:23;;;;;;;5.95;3.67;;;17.00;99.90;;;;;;4974758;28;20034;-59
2023/07/13 05:23:48;;;;;;;8.80;3.72;;;17.00;99.90;;;;;;4970735;28;20023;-58
2023/07/13 05:26:14;;;;;;;7.40;4.22;;;17.10;99.90;;;;;;5001082;28;20027;-58
2023/07/13 05:28:40;;;;;;;8.10;3.40;;;17.20;99.90;;;;;;5023527;28;20046;-58
2023/07/13 05:31:08;;;;;;;7.38;2.88;;;17.30;99.90;;;;;;5026915;28;20119;-58
2023/07/13 05:33:34;;;;;;;5.35;3.05;;;17.50;99.90;;;;;;5004079;28;20031;-59
2023/07/13 05:36:00;;;;;;;6.82;3.70;;;17.60;99.90;;;;;;5016080;28;20438;-58
2023/07/13 05:38:26;;;;;;;9.63;3.10;;;17.70;99.90;;;;;;4975800;28;20014;-58
2023/07/13 05:40:55;;;;;;;8.43;3.63;;;17.90;99.90;;;;;;4978298;28;20057;-58
2023/07/13 05:43:21;;;;;;;4.55;2.75;;;18.10;99.90;;;;;;5007148;28;20499;-57
2023/07/13 05:45:46;;;;;;;13.77;3.28;;;18.20;99.90;;;;;;4972853;28;20224;-58
2023/07/13 05:48:12;;;;;;;6.78;2.40;;;18.20;99.90;;;;;;4969293;28;20031;-58
2023/07/13 05:50:37;;;;;;;5.85;2.85;;;18.20;99.90;;;;;;4970355;28;20027;-58
2023/07/13 05:53:03;;;;;;;5.07;2.60;;;18.30;99.90;;;;;;4977921;28;20455;-58
2023/07/13 05:55:29;;;;;;;5.72;2.50;;;18.40;99.90;;;;;;4970556;28;20019;-58
2023/07/13 05:57:54;;;;;;;7.55;2.72;;;18.50;99.90;;;;;;4970199;28;20050;-58
2023/07/13 06:00:20;;;;;;;5.68;2.35;;;18.40;99.90;;;;;;4983470;28;20026;-58
2023/07/13 06:02:45;;;;;;;12.45;3.20;;;18.40;99.90;;;;;;4967770;28;20035;-58
2023/07/13 06:05:11;;;;;;;5.82;2.72;;;18.40;99.90;;;;;;4969832;28;20041;-58
2023/07/13 06:07:38;;;;;;;7.35;2.53;;;18.40;99.90;;;;;;4969902;28;20030;-58
2023/07/13 06:10:04;;;;;;;7.03;3.33;;;18.40;99.90;;;;;;4968325;28;20069;-58
2023/07/13 06:12:29;;;;;;;11.60;2.88;;;18.40;99.90;;;;;;4968850;28;20039;-58
2023/07/13 06:14:55;;;;;;;6.88;2.65;;;18.50;99.90;;;;;;4970380;28;20031;-58
2023/07/13 06:17:20;;;;;;;7.72;2.97;;;18.60;99.90;;;;;;4978157;28;20019;-58
2023/07/13 06:19:46;;;;;;;4.82;2.65;;;18.70;99.90;;;;;;4969950;28;20579;-59
2023/07/13 06:22:11;;;;;;;8.85;2.60;;;18.80;99.90;;;;;;4969587;28;20023;-58
2023/07/13 06:24:37;;;;;;;6.00;2.17;;;18.90;99.90;;;;;;4977770;28;20050;-58
2023/07/13 06:27:03;;;;;;;5.40;2.45;;;18.90;99.90;;;;;;4969640;28;20027;-58
2023/07/13 06:29:28;;;;;;;5.57;2.00;;;19.00;99.90;;;;;;4968537;28;20124;-58
2023/07/13 06:31:54;;;;;;;16.00;3.38;;;19.00;99.90;;;;;;4977519;28;20022;-58
2023/07/13 06:34:19;;;;;;;10.25;2.72;;;19.00;99.90;;;;;;4969880;28;20030;-58
2023/07/13 06:36:45;;;;;;;6.50;2.80;;;19.10;99.90;;;;;;4969849;28;20019;-58
2023/07/13 06:39:11;;;;;;;8.38;2.28;;;19.10;99.90;;;;;;4969532;28;20059;-58
2023/07/13 06:41:38;;;;;;;8.13;2.70;;;19.10;99.90;;;;;;4969614;28;20034;-58
2023/07/13 06:44:04;;;;;;;13.05;3.03;;;19.20;99.90;;;;;;4969664;28;20023;-58
2023/07/13 06:46:30;;;;;;;10.35;3.20;;;19.20;99.90;;;;;;4969781;28;20519;-58
2023/07/13 06:48:56;;;;;;;7.72;2.58;;;19.20;99.90;;;;;;4969599;28;20076;-58
2023/07/13 06:51:21;;;;;;;5.95;2.78;;;19.20;99.90;;;;;;4969265;28;20096;-60
2023/07/13 06:53:47;;;;;;;8.48;2.65;;;19.30;99.90;;;;;;4969707;28;20019;-58
2023/07/13 06:56:13;;;;;;;12.52;3.13;;;19.40;99.90;;;;;;4969657;28;20050;-58
2023/07/13 06:58:38;;;;;;;9.48;2.80;;;19.50;99.90;;;;;;4977602;28;20365;-58
2023/07/13 07:01:05;;;;;;;10.55;2.60;;;19.50;99.90;;;;;;4969553;28;20023;-58
2023/07/13 07:03:30;;;;;;;7.45;2.75;;;19.50;99.90;;;;;;4969600;28;20097;-59
2023/07/13 07:06:18;;;;;;;5.55;2.10;;;19.60;99.90;;;;;;4970846;28;20113;-60
2023/07/13 07:08:47;;;;;;;11.40;3.40;;;19.70;99.90;;;;;;4972713;28;20026;-58
2023/07/13 07:11:16;;;;;;;8.75;2.47;;;19.80;99.90;;;;;;4976935;28;20484;-58
2023/07/13 07:13:42;;;;;;;12.75;2.97;;;19.90;99.90;;;;;;4969349;28;20023;-58
2023/07/13 07:16:08;;;;;;;9.15;2.75;;;20.00;99.90;;;;;;4969263;28;20588;-58
2023/07/13 07:18:34;;;;;;;9.50;3.20;;;20.20;99.90;;;;;;4977550;28;20019;-58
2023/07/13 07:21:00;;;;;;;10.27;2.90;;;20.20;99.90;;;;;;4984925;28;20095;-58
2023/07/13 07:23:25;;;;;;;8.48;2.60;;;20.30;99.90;;;;;;4967942;28;20026;-58
2023/07/13 07:25:52;;;;;;;11.85;2.58;;;20.50;99.90;;;;;;4967913;28;20027;-59
2023/07/13 07:28:20;;;;;;;6.72;2.25;;;20.70;99.60;;;;;;4969277;28;20081;-58
2023/07/13 07:30:46;;;;;;;9.82;2.42;;;20.90;99.90;;;;;;4975428;28;20026;-58
2023/07/13 07:33:13;;;;;;;8.52;2.85;;;21.20;99.60;;;;;;4969810;28;20065;-59
2023/07/13 07:35:38;;;;;;;7.22;2.70;;;21.40;98.50;;;;;;4998543;28;20482;-58
2023/07/13 07:38:04;;;;;;;10.57;3.08;;;21.40;97.90;;;;;;5006512;28;20046;-58
2023/07/13 07:40:31;;;;;;;11.57;2.67;;;21.50;97.90;;;;;;5025459;28;20507;-58
2023/07/13 07:42:56;;;;;;;9.95;3.72;;;21.70;98.00;;;;;;4967198;28;20110;-58
2023/07/13 07:45:22;;;;;;;10.57;2.88;;;21.80;96.70;;;;;;4972077;28;20499;-58
2023/07/13 07:47:47;;;;;;;9.00;3.47;;;22.00;96.70;;;;;;4980240;28;20029;-59
2023/07/13 07:50:13;;;;;;;9.23;3.35;;;22.00;96.50;;;;;;4968736;28;20027;-59
2023/07/13 07:52:39;;;;;;;13.15;3.40;;;22.00;95.90;;;;;;4974968;28;20399;-57
2023/07/13 07:55:07;;;;;;;7.60;2.70;;;21.90;96.40;;;;;;4967813;28;20019;-57
2023/07/13 07:57:33;;;;;;;10.60;3.30;;;21.90;96.50;;;;;;4982237;28;20019;-58
2023/07/13 07:59:58;;;;;;;6.53;2.83;;;21.90;95.90;;;;;;4996521;28;20376;-57
2023/07/13 08:02:25;;;;;;;14.40;3.55;;;21.90;96.50;;;;;;4968243;28;20031;-58
2023/07/13 08:04:51;;;;;;;8.45;3.38;;;21.90;96.00;;;;;;4968510;28;20023;-57
2023/07/13 08:07:16;;;;;;;6.22;3.28;;;21.90;95.60;;;;;;4976630;28;20110;-57
2023/07/13 08:09:42;;;;;;;9.38;3.45;;;22.00;95.40;;;;;;4968350;28;20092;-58
2023/07/13 08:12:08;;;;;;;14.23;4.05;;;22.20;95.10;;;;;;4976155;28;20031;-58
2023/07/13 08:14:33;;;;;;;13.23;4.20;;;22.40;94.50;;;;;;4976496;28;20080;-58
2023/07/13 08:16:59;;;;;;;9.07;3.13;;;22.40;94.40;;;;;;4967537;28;20035;-58
2023/07/13 08:19:24;;;;;;;9.65;2.42;;;22.50;94.20;;;;;;4967762;28;20100;-58
2023/07/13 08:21:50;;;;;;;6.82;3.45;;;22.30;94.40;;;;;;4976084;28;20023;-58
2023/07/13 08:24:18;;;;;;;6.50;2.50;;;22.60;94.70;;;;;;4968199;28;20034;-58
2023/07/13 08:26:44;;;;;;;8.07;2.40;;;23.40;94.00;;;;;;4968237;28;20110;-58
2023/07/13 08:29:09;;;;;;;5.28;1.85;;;24.30;91.80;;;;;;4974824;28;20499;-58
2023/07/13 08:31:35;;;;;;;6.70;2.25;;;25.00;91.00;;;;;;4967683;28;20141;-58
2023/07/13 08:34:00;;;;;;;8.07;3.03;;;24.70;88.10;;;;;;4968487;28;20011;-59
2023/07/13 08:36:27;;;;;;;5.65;1.67;;;24.40;88.40;;;;;;4968964;28;20046;-58
2023/07/13 08:38:53;;;;;;;4.57;1.50;;;24.10;86.30;;;;;;4971114;28;20446;-57
2023/07/13 08:41:19;;;;;;;6.32;2.15;;;24.20;87.20;;;;;;4982282;28;20136;-58
2023/07/13 08:43:51;;;;;;;7.40;1.80;;;24.60;84.60;;;;;;4990243;28;20026;-59
2023/07/13 08:46:34;;;;;;;5.97;2.25;;;25.20;83.10;;;;;;4989850;28;20485;-59
2023/07/13 08:49:09;;;;;;;2.65;1.30;;;25.40;80.40;;;;;;4973843;28;20030;-59
2023/07/13 08:52:00;;;;;;;3.97;1.35;;;25.80;80.20;;;;;;4984603;28;20027;-59
2023/07/13 08:54:36;;;;;;;2.83;1.52;;;26.50;79.60;;;;;;4972604;28;20023;-59
2023/07/13 08:57:21;;;;;;;6.00;1.60;;;27.30;76.10;;;;;;4988453;28;20014;-59
2023/07/13 08:59:47;;;;;;;4.88;2.05;;;28.00;73.90;;;;;;4983242;28;20098;-57
2023/07/13 09:02:41;;;;;;;6.72;2.00;;;29.00;72.30;;;;;;4989701;28;20069;-57
2023/07/13 09:05:18;;;;;;;4.80;1.38;;;28.80;70.20;;;;;;4997275;28;20041;-57
2023/07/13 09:08:12;;;;;;;5.35;2.10;;;29.00;70.80;;;;;;4981833;28;20034;-56
2023/07/13 09:10:53;;;;;;;5.85;1.65;;;28.90;70.10;;;;;;4989581;28;20032;-57
2023/07/13 09:13:24;;;;;;;4.68;1.95;;;29.80;68.30;;;;;;4990294;28;20435;-57
2023/07/13 09:15:50;;;;;;;6.22;2.00;;;29.80;67.40;;;;;;4990034;28;20380;-57
2023/07/13 09:18:45;;;;;;;5.97;2.00;;;28.60;67.50;;;;;;4981540;28;20049;-59
2023/07/13 09:21:16;;;;;;;4.32;1.73;;;27.40;69.10;;;;;;4986386;28;20568;-58
2023/07/13 09:23:42;;;;;;;5.05;2.10;;;26.80;71.70;;;;;;4978924;28;20031;-59
2023/07/13 09:26:21;;;;;;;6.85;2.13;;;26.50;72.80;;;;;;4988393;28;20079;-59
2023/07/13 09:29:14;;;;;;;5.18;2.05;;;26.50;74.00;;;;;;4989712;28;20537;-59
2023/07/13 09:31:47;;;;;;;4.90;1.92;;;27.50;70.70;;;;;;4982456;28;20092;-59
2023/07/13 09:34:13;;;;;;;6.50;2.13;;;27.90;71.00;;;;;;4986071;28;20026;-58
2023/07/13 09:36:39;;;;;;;3.88;1.95;;;28.00;69.80;;;;;;4978479;28;20606;-58
2023/07/13 09:39:07;;;;;;;4.22;1.48;;;29.00;67.50;;;;;;4987094;28;20057;-57
2023/07/13 09:42:01;;;;;;;3.47;1.50;;;28.50;67.50;;;;;;4987352;28;20437;-58
2023/07/13 09:44:30;;;;;;;6.30;1.98;;;27.80;68.80;;;;;;4987086;28;20428;-57
2023/07/13 09:46:56;;;;;;;7.57;1.92;;;27.40;70.30;;;;;;4978571;28;20027;-57
2023/07/13 09:49:33;;;;;;;6.28;1.92;;;27.10;70.40;;;;;;4979011;28;20496;-57
2023/07/13 09:52:04;;;;;;;15.77;2.65;;;27.00;71.50;;;;;;4979441;28;20072;-57
2023/07/13 09:54:34;;;;;;;8.68;2.08;;;27.00;72.70;;;;;;4983042;28;20634;-57
2023/07/13 09:57:01;;;;;;;4.32;1.70;;;27.40;72.40;;;;;;4977023;28;20030;-57
2023/07/13 09:59:40;;;;;;;7.13;2.00;;;27.80;70.00;;;;;;4980715;28;20034;-58
2023/07/13 10:02:24;;;;;;;4.55;1.92;;;28.20;68.90;;;;;;4980929;28;20104;-57
2023/07/13 10:04:58;;;;;;;4.22;1.80;;;27.50;68.00;;;;;;4989639;28;20022;-58
2023/07/13 10:07:24;;;;;;;5.82;1.80;;;26.70;70.90;;;;;;4991113;28;20034;-57
2023/07/13 10:09:54;;;;;;;6.93;1.83;;;26.40;71.50;;;;;;4981177;28;20034;-58
2023/07/13 10:12:20;;;;;;;;;;;27.50;71.30;;;;;;4962285;28;20542;-57
2023/07/13 10:14:47;;;;;;;4.57;2.00;;;28.60;68.60;;;;;;4977775;28;20000;-56
2023/07/13 10:17:14;;;;;;;1.95;1.52;;;30.10;68.00;;;;;;4969840;28;20026;-57
2023/07/13 10:19:43;;;;;;;2.88;1.52;;;31.10;66.80;;;;;;4978251;28;20034;-56
2023/07/13 10:22:21;;;;;;;3.70;1.63;;;31.60;63.20;;;;;;4969032;28;20026;-56
2023/07/13 10:24:46;;;;;;;4.35;1.48;;;32.50;63.00;;;;;;4968505;28;20042;-57
2023/07/13 10:27:40;;;;;;;7.07;2.00;;;33.30;62.20;;;;;;4967063;28;20035;-56
2023/07/13 10:30:17;;;;;;;9.00;1.85;;;33.20;59.70;;;;;;4985958;28;20046;-56
2023/07/13 10:32:43;;;;;;;6.47;1.40;;;32.50;58.80;;;;;;4982563;28;20049;-56
2023/07/13 10:35:12;;;;;;;4.63;1.83;;;30.70;60.80;;;;;;4980024;28;20026;-57
2023/07/13 10:37:45;;;;;;;5.35;1.65;;;30.40;64.60;;;;;;4980749;28;20097;-57
2023/07/13 10:40:20;;;;;;;4.03;1.67;;;30.10;63.50;;;;;;4969596;28;20387;-55
2023/07/13 10:42:50;;;;;;;5.05;1.67;;;30.20;63.20;;;;;;4966683;28;20046;-56
2023/07/13 10:45:16;;;;;;;;;;;30.50;63.80;;;;;;4969107;28;20032;-57
2023/07/13 10:47:43;;;;;;;5.68;1.70;;;30.50;62.20;;;;;;4992025;28;20003;-57
2023/07/13 10:50:18;;;;;;;5.07;1.67;;;29.90;63.30;;;;;;5019706;28;20042;-57
2023/07/13 10:52:54;;;;;;;5.97;2.00;;;31.10;64.20;;;;;;5019176;28;20389;-56
2023/07/13 10:55:36;;;;;;;3.53;1.58;;;31.70;60.30;;;;;;4969301;28;20338;-57
2023/07/13 10:58:19;;;;;;;5.63;1.70;;;32.60;60.10;;;;;;4967737;28;20019;-56
2023/07/13 11:01:11;;;;;;;5.53;1.80;;;32.70;60.10;;;;;;4983176;28;20014;-56
2023/07/13 11:03:56;;;;;;;5.97;1.65;;;32.80;59.00;;;;;;4980575;28;20026;-56
2023/07/13 11:06:29;;;;;;;5.07;2.10;;;32.00;59.50;;;;;;4969807;28;20092;-56
2023/07/13 11:08:57;;;;;;;4.50;1.60;;;32.20;59.60;;;;;;4985151;28;20554;-56
2023/07/13 11:11:26;;;;;;;5.13;1.92;;;32.20;59.60;;;;;;4971088;28;20079;-58
2023/07/13 11:13:51;;;;;;;6.28;1.70;;;32.50;60.10;;;;;;4973433;28;20026;-57
2023/07/13 11:16:20;;;;;;;3.00;1.50;;;32.80;58.00;;;;;;4968883;28;20027;-57
2023/07/13 11:18:49;;;;;;;5.53;2.07;;;33.20;57.40;;;;;;4975700;28;20054;-56
2023/07/13 11:21:17;;;;;;;7.28;2.03;;;33.70;58.50;;;;;;4971744;28;20031;-57
2023/07/13 11:23:51;;;;;;;4.90;1.55;;;33.30;56.80;;;;;;4974197;28;20095;-58
2023/07/13 11:26:47;;;;;;;5.45;1.60;;;33.60;56.40;;;;;;4988224;28;20062;-57
2023/07/13 11:29:16;;;;;;;3.63;1.35;;;33.70;57.00;;;;;;4987060;28;20117;-56
2023/07/13 11:31:45;;;;;;;5.10;1.40;;;34.40;56.90;;;;;;4974182;28;20389;-56
2023/07/13 11:34:15;;;;;;;4.53;1.60;;;34.00;57.00;;;;;;4968598;28;20415;-57
2023/07/13 11:36:44;;;;;;;2.85;1.40;;;34.10;56.70;;;;;;4968791;28;20507;-56
2023/07/13 11:39:21;;;;;;;6.18;1.98;;;33.90;55.00;;;;;;4976310;28;20042;-56
2023/07/13 11:41:57;;;;;;;5.68;1.75;;;33.50;57.30;;;;;;4974579;28;20023;-56
2023/07/13 11:44:24;;;;;;;5.22;1.75;;;33.40;55.60;;;;;;4960692;28;20019;-56
2023/07/13 11:46:55;;;;;;;6.10;1.90;;;32.10;57.70;;;;;;4975609;28;20046;-57
2023/07/13 11:49:24;;;;;;;4.63;1.50;;;32.30;58.00;;;;;;4968275;28;20500;-56
2023/07/13 11:51:53;;;;;;;9.90;1.80;;;31.70;58.00;;;;;;4982554;28;20564;-56
2023/07/13 11:54:23;;;;;;;6.90;1.90;;;31.40;57.90;;;;;;4968907;28;20015;-56
2023/07/13 11:56:49;;;;;;;6.00;1.38;;;31.10;58.40;;;;;;4976204;28;20038;-56
2023/07/13 11:59:15;;;;;;;5.55;1.92;;;31.40;58.10;;;;;;4968434;28;20388;-56
2023/07/13 12:01:48;;;;;;;4.47;1.85;;;31.20;58.10;;;;;;4973495;28;20027;-56
2023/07/13 12:04:31;;;;;;;2.97;1.63;;;31.60;60.90;;;;;;4984872;28;20037;-56
2023/07/13 12:07:03;;;;;;;5.32;1.40;;;31.90;58.40;;;;;;4986620;28;20519;-56
2023/07/13 12:09:30;;;;;;;4.78;1.70;;;31.10;57.50;;;;;;4979469;28;20034;-55
2023/07/13 12:11:58;;;;;;;4.78;1.80;;;30.90;59.30;;;;;;4970975;28;20083;-56
2023/07/13 12:14:26;;;;;;;3.15;1.77;;;30.20;59.00;;;;;;4975119;28;20027;-56
2023/07/13 12:16:52;;;;;;;4.25;1.73;;;29.70;59.90;;;;;;4968850;28;20019;-56
2023/07/13 12:19:25;;;;;;;5.97;1.95;;;29.50;60.40;;;;;;4976285;28;20032;-56
2023/07/13 12:21:56;;;;;;;6.95;2.13;;;28.60;61.60;;;;;;4968341;28;20034;-56
2023/07/13 12:24:23;;;;;;;7.65;1.50;;;28.40;62.50;;;;;;4999319;28;20033;-56
2023/07/13 12:26:55;;;;;;;3.75;1.40;;;28.50;63.20;;;;;;5028916;28;20023;-55
2023/07/13 12:29:21;;;;;;;2.85;1.48;;;28.70;60.60;;;;;;5037041;28;20470;-56
2023/07/13 12:31:49;;;;;;;5.90;1.60;;;28.80;63.20;;;;;;4980219;28;20454;-56
2023/07/13 12:34:20;;;;;;;4.60;1.70;;;28.70;58.90;;;;;;4978053;28;20483;-55
2023/07/13 12:37:02;;;;;;;4.57;1.40;;;28.90;61.50;;;;;;4979241;28;20063;-57
2023/07/13 12:39:35;;;;;;;5.95;1.55;;;28.00;58.80;;;;;;4971168;28;20487;-55
2023/07/13 12:42:29;;;;;;;3.45;1.60;;;27.90;59.90;;;;;;4988984;28;20059;-55
2023/07/13 12:45:21;;;;;;;6.40;1.50;;;27.70;61.60;;;;;;5018117;28;20034;-55
2023/07/13 12:47:54;;;;;;;6.25;2.10;;;27.30;61.20;;;;;;4976645;28;20113;-55
2023/07/13 12:50:23;;;;;;;5.70;1.90;;;27.70;63.20;;;;;;4986967;28;20653;-55
2023/07/13 12:53:01;;;;;;;3.28;1.77;;;27.50;62.90;;;;;;4985321;28;20028;-55
2023/07/13 12:55:28;;;;;;;5.65;1.77;;;27.20;62.40;;;;;;4971335;28;20025;-56